Crown Princess — ZCDM6 — position and weather

sailwx.info

Track history (hours):
 
Tides and Currents Weather Stations Pressure Air Temp Water Temp Dewpoint Dewpoint Depression Visibility Wind Speed Wind Dir Waves Ship Positions

Crown Princess

Last reported at 2014-Dec-21 06:33 UTC. Time now 2014-Dec-22 01:22 UTC.
Position N 32°14' W 117°37'.

Type: Ship. MMSI: 310500000.

Date/timePositionNaut miles runAvg speedWind from/ knotsBaromVisibWave heightAir tempDewpointWater temp
2014-Dec-21 06:33N 32°14' W 117°37'1919.5
2014-Dec-21 05:34N 32°33' W 117°45'1919.3
2014-Dec-21 04:34N 32°52' W 117°50'1818.5
2014-Dec-21 03:34N 33°09' W 117°58'39 3.2
2014-Dec-20 15:06N 33°45' W 118°17'3212.3
2014-Dec-20 12:33N 33°16' W 118°01'1919.5
2014-Dec-20 11:34N 32°58' W 117°53'2120.6
2014-Dec-20 10:34N 32°38' W 117°47'  
2014-Dec-14 17:00N 29°24' W 116°24'17618.3 350 / 111020.210.8 16.012.418.0
2014-Dec-14 07:24N 32°09' W 117°35'1517.8
2014-Dec-14 06:33N 32°22' W 117°42'1817.8
2014-Dec-14 05:33N 32°39' W 117°49'1818.3
2014-Dec-14 04:34N 32°57' W 117°53'1817.5
2014-Dec-14 03:33N 33°13' W 118°03'3410.3
2014-Dec-14 00:14N 33°45' W 118°17'0 0.0
2014-Dec-13 23:23N 33°45' W 118°17'0 0.0
2014-Dec-13 18:15N 33°45' W 118°17'24 4.2
2014-Dec-13 12:33N 33°23' W 118°04'1716.9
2014-Dec-13 11:33N 33°08' W 117°56'1818.2
2014-Dec-13 10:33N 32°50' W 117°50'2019.7
2014-Dec-13 09:34N 32°31' W 117°45'2019.6
2014-Dec-13 08:33N 32°13' W 117°36'  
Track history (hours):
 
Tides and Currents Weather Stations Pressure Air Temp Water Temp Dewpoint Dewpoint Depression Visibility Wind Speed Wind Dir Waves Ship Positions

Crown Princess

Last reported at 2014-Dec-21 06:33 UTC. Time now 2014-Dec-22 01:22 UTC.
Position N 32°14' W 117°37'.

Type: Ship. MMSI: 310500000.

Date/timePositionNaut miles runAvg speedWind from/ knotsBaromVisibWave heightAir tempDewpointWater temp
2014-Dec-21 06:33N 32°14' W 117°37'1919.5
2014-Dec-21 05:34N 32°33' W 117°45'1919.3
2014-Dec-21 04:34N 32°52' W 117°50'1818.5
2014-Dec-21 03:34N 33°09' W 117°58'39 3.2
2014-Dec-20 15:06N 33°45' W 118°17'3212.3
2014-Dec-20 12:33N 33°16' W 118°01'1919.5
2014-Dec-20 11:34N 32°58' W 117°53'2120.6
2014-Dec-20 10:34N 32°38' W 117°47'  
2014-Dec-14 17:00N 29°24' W 116°24'17618.3 350 / 111020.210.8 16.012.418.0
2014-Dec-14 07:24N 32°09' W 117°35'1517.8
2014-Dec-14 06:33N 32°22' W 117°42'1817.8
2014-Dec-14 05:33N 32°39' W 117°49'1818.3
2014-Dec-14 04:34N 32°57' W 117°53'1817.5
2014-Dec-14 03:33N 33°13' W 118°03'3410.3
2014-Dec-14 00:14N 33°45' W 118°17'0 0.0
2014-Dec-13 23:23N 33°45' W 118°17'0 0.0
2014-Dec-13 18:15N 33°45' W 118°17'24 4.2
2014-Dec-13 12:33N 33°23' W 118°04'1716.9
2014-Dec-13 11:33N 33°08' W 117°56'1818.2
2014-Dec-13 10:33N 32°50' W 117°50'2019.7
2014-Dec-13 09:34N 32°31' W 117°45'2019.6
2014-Dec-13 08:33N 32°13' W 117°36'  

Dump ship's entire track history